sensor_id;sensor_type;location;lat;lon;timestamp;P1;durP1;ratioP1;P2;durP2;ratioP2
29728;SDS011;20055;51.498;11.960;2022-08-19T00:00:24;50.42;;;34.10;;
29728;SDS011;20055;51.498;11.960;2022-08-19T00:02:51;49.80;;;33.72;;
29728;SDS011;20055;51.498;11.960;2022-08-19T00:05:17;48.50;;;33.50;;
29728;SDS011;20055;51.498;11.960;2022-08-19T00:07:44;53.33;;;32.35;;
29728;SDS011;20055;51.498;11.960;2022-08-19T00:10:12;52.80;;;33.05;;
29728;SDS011;20055;51.498;11.960;2022-08-19T00:12:40;47.15;;;34.00;;
29728;SDS011;20055;51.498;11.960;2022-08-19T00:15:08;55.05;;;33.78;;
29728;SDS011;20055;51.498;11.960;2022-08-19T00:17:40;52.08;;;35.53;;
29728;SDS011;20055;51.498;11.960;2022-08-19T00:20:08;52.78;;;34.65;;
29728;SDS011;20055;51.498;11.960;2022-08-19T00:22:37;55.55;;;37.60;;
29728;SDS011;20055;51.498;11.960;2022-08-19T00:25:04;60.28;;;35.60;;
29728;SDS011;20055;51.498;11.960;2022-08-19T00:27:31;54.00;;;36.55;;
29728;SDS011;20055;51.498;11.960;2022-08-19T00:29:57;56.67;;;38.15;;
29728;SDS011;20055;51.498;11.960;2022-08-19T00:32:24;58.40;;;38.00;;
29728;SDS011;20055;51.498;11.960;2022-08-19T00:34:52;61.15;;;39.05;;
29728;SDS011;20055;51.498;11.960;2022-08-19T00:37:19;63.63;;;39.60;;
29728;SDS011;20055;51.498;11.960;2022-08-19T00:39:49;60.65;;;39.88;;
29728;SDS011;20055;51.498;11.960;2022-08-19T00:42:17;66.43;;;42.72;;
29728;SDS011;20055;51.498;11.960;2022-08-19T00:44:44;66.10;;;42.38;;
29728;SDS011;20055;51.498;11.960;2022-08-19T00:47:11;65.00;;;41.30;;
29728;SDS011;20055;51.498;11.960;2022-08-19T00:49:39;65.57;;;40.90;;
29728;SDS011;20055;51.498;11.960;2022-08-19T00:52:11;63.60;;;40.65;;
29728;SDS011;20055;51.498;11.960;2022-08-19T00:54:41;68.53;;;42.33;;
29728;SDS011;20055;51.498;11.960;2022-08-19T00:57:09;64.25;;;42.22;;
29728;SDS011;20055;51.498;11.960;2022-08-19T00:59:38;70.88;;;42.47;;
29728;SDS011;20055;51.498;11.960;2022-08-19T01:02:06;80.93;;;41.92;;
29728;SDS011;20055;51.498;11.960;2022-08-19T01:04:33;65.82;;;41.28;;
29728;SDS011;20055;51.498;11.960;2022-08-19T01:06:59;61.10;;;42.13;;
29728;SDS011;20055;51.498;11.960;2022-08-19T01:09:27;62.17;;;39.55;;
29728;SDS011;20055;51.498;11.960;2022-08-19T01:11:54;68.65;;;42.67;;
29728;SDS011;20055;51.498;11.960;2022-08-19T01:14:21;67.35;;;41.75;;
29728;SDS011;20055;51.498;11.960;2022-08-19T01:16:48;69.28;;;42.00;;
29728;SDS011;20055;51.498;11.960;2022-08-19T01:19:25;62.55;;;41.08;;
29728;SDS011;20055;51.498;11.960;2022-08-19T01:22:06;61.55;;;41.45;;
29728;SDS011;20055;51.498;11.960;2022-08-19T01:24:38;67.55;;;43.15;;
29728;SDS011;20055;51.498;11.960;2022-08-19T01:27:05;66.55;;;42.38;;
29728;SDS011;20055;51.498;11.960;2022-08-19T01:29:32;69.05;;;43.05;;
29728;SDS011;20055;51.498;11.960;2022-08-19T01:31:58;69.78;;;43.95;;
29728;SDS011;20055;51.498;11.960;2022-08-19T01:34:26;69.47;;;45.25;;
29728;SDS011;20055;51.498;11.960;2022-08-19T01:36:52;67.43;;;44.42;;
29728;SDS011;20055;51.498;11.960;2022-08-19T01:39:20;70.80;;;45.78;;
29728;SDS011;20055;51.498;11.960;2022-08-19T01:41:48;81.70;;;46.37;;
29728;SDS011;20055;51.498;11.960;2022-08-19T01:44:15;71.80;;;45.97;;
29728;SDS011;20055;51.498;11.960;2022-08-19T01:46:42;82.20;;;47.55;;
29728;SDS011;20055;51.498;11.960;2022-08-19T01:49:09;78.82;;;50.28;;
29728;SDS011;20055;51.498;11.960;2022-08-19T01:51:36;79.32;;;49.15;;
29728;SDS011;20055;51.498;11.960;2022-08-19T01:54:03;81.07;;;50.45;;
29728;SDS011;20055;51.498;11.960;2022-08-19T01:56:29;81.53;;;50.78;;
29728;SDS011;20055;51.498;11.960;2022-08-19T01:58:57;82.57;;;50.67;;
29728;SDS011;20055;51.498;11.960;2022-08-19T02:01:30;89.00;;;52.50;;
29728;SDS011;20055;51.498;11.960;2022-08-19T02:04:00;85.22;;;52.10;;
29728;SDS011;20055;51.498;11.960;2022-08-19T02:06:26;85.03;;;51.67;;
29728;SDS011;20055;51.498;11.960;2022-08-19T02:08:53;88.65;;;53.17;;
29728;SDS011;20055;51.498;11.960;2022-08-19T02:11:21;85.05;;;52.25;;
29728;SDS011;20055;51.498;11.960;2022-08-19T02:13:52;93.10;;;53.60;;
29728;SDS011;20055;51.498;11.960;2022-08-19T02:16:20;95.53;;;53.67;;
29728;SDS011;20055;51.498;11.960;2022-08-19T02:18:46;92.68;;;54.92;;
29728;SDS011;20055;51.498;11.960;2022-08-19T02:21:19;90.65;;;54.05;;
29728;SDS011;20055;51.498;11.960;2022-08-19T02:23:47;89.15;;;56.28;;
29728;SDS011;20055;51.498;11.960;2022-08-19T02:26:14;89.03;;;55.25;;
29728;SDS011;20055;51.498;11.960;2022-08-19T02:28:41;90.35;;;53.92;;
29728;SDS011;20055;51.498;11.960;2022-08-19T02:31:09;99.65;;;57.00;;
29728;SDS011;20055;51.498;11.960;2022-08-19T02:33:36;96.25;;;56.17;;
29728;SDS011;20055;51.498;11.960;2022-08-19T02:36:04;98.43;;;59.47;;
29728;SDS011;20055;51.498;11.960;2022-08-19T02:38:31;96.82;;;58.30;;
29728;SDS011;20055;51.498;11.960;2022-08-19T02:40:59;103.82;;;56.30;;
29728;SDS011;20055;51.498;11.960;2022-08-19T02:43:29;98.28;;;59.05;;
29728;SDS011;20055;51.498;11.960;2022-08-19T02:45:56;100.70;;;58.08;;
29728;SDS011;20055;51.498;11.960;2022-08-19T02:48:23;91.88;;;57.78;;
29728;SDS011;20055;51.498;11.960;2022-08-19T02:50:51;100.00;;;59.40;;
29728;SDS011;20055;51.498;11.960;2022-08-19T02:53:21;98.93;;;59.75;;
29728;SDS011;20055;51.498;11.960;2022-08-19T02:55:49;105.00;;;62.13;;
29728;SDS011;20055;51.498;11.960;2022-08-19T02:58:16;104.97;;;61.22;;
29728;SDS011;20055;51.498;11.960;2022-08-19T03:00:47;104.80;;;61.83;;
29728;SDS011;20055;51.498;11.960;2022-08-19T03:03:16;109.85;;;60.95;;
29728;SDS011;20055;51.498;11.960;2022-08-19T03:05:43;104.88;;;61.63;;
29728;SDS011;20055;51.498;11.960;2022-08-19T03:08:10;103.68;;;60.80;;
29728;SDS011;20055;51.498;11.960;2022-08-19T03:10:41;100.78;;;62.30;;
29728;SDS011;20055;51.498;11.960;2022-08-19T03:13:10;110.43;;;57.55;;
29728;SDS011;20055;51.498;11.960;2022-08-19T03:15:45;97.30;;;58.78;;
29728;SDS011;20055;51.498;11.960;2022-08-19T03:18:13;101.80;;;58.65;;
29728;SDS011;20055;51.498;11.960;2022-08-19T03:20:40;102.75;;;62.83;;
29728;SDS011;20055;51.498;11.960;2022-08-19T03:23:09;98.05;;;62.75;;
29728;SDS011;20055;51.498;11.960;2022-08-19T03:25:36;100.40;;;59.30;;
29728;SDS011;20055;51.498;11.960;2022-08-19T03:28:05;94.43;;;59.28;;
29728;SDS011;20055;51.498;11.960;2022-08-19T03:30:33;97.85;;;61.58;;
29728;SDS011;20055;51.498;11.960;2022-08-19T03:32:59;92.47;;;59.85;;
29728;SDS011;20055;51.498;11.960;2022-08-19T03:35:25;95.32;;;60.60;;
29728;SDS011;20055;51.498;11.960;2022-08-19T03:37:52;99.35;;;60.45;;
29728;SDS011;20055;51.498;11.960;2022-08-19T03:40:18;93.30;;;60.97;;
29728;SDS011;20055;51.498;11.960;2022-08-19T03:42:44;100.35;;;62.00;;
29728;SDS011;20055;51.498;11.960;2022-08-19T03:45:11;91.72;;;60.75;;
29728;SDS011;20055;51.498;11.960;2022-08-19T03:47:38;92.78;;;58.83;;
29728;SDS011;20055;51.498;11.960;2022-08-19T03:50:04;104.90;;;61.65;;
29728;SDS011;20055;51.498;11.960;2022-08-19T03:52:30;89.18;;;57.78;;
29728;SDS011;20055;51.498;11.960;2022-08-19T03:54:57;90.70;;;56.95;;
29728;SDS011;20055;51.498;11.960;2022-08-19T03:57:23;95.43;;;58.95;;
29728;SDS011;20055;51.498;11.960;2022-08-19T03:59:49;96.18;;;58.60;;
29728;SDS011;20055;51.498;11.960;2022-08-19T04:02:15;89.53;;;59.10;;
29728;SDS011;20055;51.498;11.960;2022-08-19T04:04:42;92.63;;;59.47;;
29728;SDS011;20055;51.498;11.960;2022-08-19T04:07:10;91.53;;;59.78;;
29728;SDS011;20055;51.498;11.960;2022-08-19T04:09:39;95.75;;;59.70;;
29728;SDS011;20055;51.498;11.960;2022-08-19T04:12:05;102.85;;;61.78;;
29728;SDS011;20055;51.498;11.960;2022-08-19T04:14:33;101.32;;;62.08;;
29728;SDS011;20055;51.498;11.960;2022-08-19T04:17:00;91.80;;;60.25;;
29728;SDS011;20055;51.498;11.960;2022-08-19T04:19:30;95.15;;;59.60;;
29728;SDS011;20055;51.498;11.960;2022-08-19T04:21:57;91.43;;;58.45;;
29728;SDS011;20055;51.498;11.960;2022-08-19T04:24:24;89.40;;;58.88;;
29728;SDS011;20055;51.498;11.960;2022-08-19T04:26:50;99.28;;;59.42;;
29728;SDS011;20055;51.498;11.960;2022-08-19T04:29:18;93.65;;;59.30;;
29728;SDS011;20055;51.498;11.960;2022-08-19T04:31:47;91.25;;;59.40;;
29728;SDS011;20055;51.498;11.960;2022-08-19T04:34:15;92.80;;;58.80;;
29728;SDS011;20055;51.498;11.960;2022-08-19T04:36:44;88.35;;;58.38;;
29728;SDS011;20055;51.498;11.960;2022-08-19T04:39:11;92.00;;;56.83;;
29728;SDS011;20055;51.498;11.960;2022-08-19T04:41:42;88.57;;;57.28;;
29728;SDS011;20055;51.498;11.960;2022-08-19T04:44:29;86.90;;;56.75;;
29728;SDS011;20055;51.498;11.960;2022-08-19T04:46:56;89.30;;;57.60;;
29728;SDS011;20055;51.498;11.960;2022-08-19T04:49:23;92.45;;;53.42;;
29728;SDS011;20055;51.498;11.960;2022-08-19T04:51:52;84.57;;;54.90;;
29728;SDS011;20055;51.498;11.960;2022-08-19T04:54:23;88.43;;;55.88;;
29728;SDS011;20055;51.498;11.960;2022-08-19T04:56:51;85.30;;;54.05;;
29728;SDS011;20055;51.498;11.960;2022-08-19T04:59:19;89.53;;;52.15;;
29728;SDS011;20055;51.498;11.960;2022-08-19T05:01:46;85.93;;;53.97;;
29728;SDS011;20055;51.498;11.960;2022-08-19T05:04:16;84.63;;;51.55;;
29728;SDS011;20055;51.498;11.960;2022-08-19T05:06:45;84.78;;;51.85;;
29728;SDS011;20055;51.498;11.960;2022-08-19T05:09:12;79.68;;;52.75;;
29728;SDS011;20055;51.498;11.960;2022-08-19T05:11:40;82.05;;;52.25;;
29728;SDS011;20055;51.498;11.960;2022-08-19T05:14:07;89.65;;;52.50;;
29728;SDS011;20055;51.498;11.960;2022-08-19T05:16:34;75.60;;;49.15;;
29728;SDS011;20055;51.498;11.960;2022-08-19T05:19:00;81.80;;;50.17;;
29728;SDS011;20055;51.498;11.960;2022-08-19T05:21:45;86.20;;;49.65;;
29728;SDS011;20055;51.498;11.960;2022-08-19T05:24:30;79.90;;;48.72;;
29728;SDS011;20055;51.498;11.960;2022-08-19T05:26:59;81.70;;;48.28;;
29728;SDS011;20055;51.498;11.960;2022-08-19T05:29:28;74.72;;;48.25;;
29728;SDS011;20055;51.498;11.960;2022-08-19T05:31:57;85.38;;;50.13;;
29728;SDS011;20055;51.498;11.960;2022-08-19T05:34:25;81.25;;;50.80;;
29728;SDS011;20055;51.498;11.960;2022-08-19T05:36:52;60.28;;;37.08;;
29728;SDS011;20055;51.498;11.960;2022-08-19T05:39:23;69.18;;;39.65;;
29728;SDS011;20055;51.498;11.960;2022-08-19T05:41:53;70.80;;;38.88;;
29728;SDS011;20055;51.498;11.960;2022-08-19T05:44:26;69.45;;;38.78;;
29728;SDS011;20055;51.498;11.960;2022-08-19T05:47:00;54.13;;;37.78;;
29728;SDS011;20055;51.498;11.960;2022-08-19T05:49:28;57.53;;;34.42;;
29728;SDS011;20055;51.498;11.960;2022-08-19T05:51:55;59.00;;;34.40;;
29728;SDS011;20055;51.498;11.960;2022-08-19T05:54:22;52.00;;;32.97;;
29728;SDS011;20055;51.498;11.960;2022-08-19T05:56:49;54.95;;;30.05;;
29728;SDS011;20055;51.498;11.960;2022-08-19T05:59:17;58.58;;;29.77;;
29728;SDS011;20055;51.498;11.960;2022-08-19T06:01:47;46.77;;;30.57;;
29728;SDS011;20055;51.498;11.960;2022-08-19T06:04:19;42.15;;;28.35;;
29728;SDS011;20055;51.498;11.960;2022-08-19T06:06:48;43.47;;;26.45;;
29728;SDS011;20055;51.498;11.960;2022-08-19T06:09:17;45.55;;;27.70;;
29728;SDS011;20055;51.498;11.960;2022-08-19T06:11:45;42.92;;;27.20;;
29728;SDS011;20055;51.498;11.960;2022-08-19T06:14:14;41.78;;;24.83;;
29728;SDS011;20055;51.498;11.960;2022-08-19T06:16:43;37.28;;;25.08;;
29728;SDS011;20055;51.498;11.960;2022-08-19T06:19:12;39.75;;;23.85;;
29728;SDS011;20055;51.498;11.960;2022-08-19T06:21:42;39.28;;;23.23;;
29728;SDS011;20055;51.498;11.960;2022-08-19T06:24:13;41.42;;;23.95;;
29728;SDS011;20055;51.498;11.960;2022-08-19T06:26:45;44.50;;;23.00;;
29728;SDS011;20055;51.498;11.960;2022-08-19T06:29:14;40.55;;;23.67;;
29728;SDS011;20055;51.498;11.960;2022-08-19T06:31:43;40.78;;;23.05;;
29728;SDS011;20055;51.498;11.960;2022-08-19T06:34:16;36.25;;;21.90;;
29728;SDS011;20055;51.498;11.960;2022-08-19T06:36:44;40.38;;;22.65;;
29728;SDS011;20055;51.498;11.960;2022-08-19T06:39:20;42.23;;;22.00;;
29728;SDS011;20055;51.498;11.960;2022-08-19T06:41:52;36.25;;;20.27;;
29728;SDS011;20055;51.498;11.960;2022-08-19T06:44:21;35.20;;;20.80;;
29728;SDS011;20055;51.498;11.960;2022-08-19T06:46:49;36.75;;;20.20;;
29728;SDS011;20055;51.498;11.960;2022-08-19T06:49:16;33.95;;;21.13;;
29728;SDS011;20055;51.498;11.960;2022-08-19T06:51:43;34.05;;;19.90;;
29728;SDS011;20055;51.498;11.960;2022-08-19T06:54:13;35.72;;;19.63;;
29728;SDS011;20055;51.498;11.960;2022-08-19T06:56:41;32.13;;;20.10;;
29728;SDS011;20055;51.498;11.960;2022-08-19T06:59:10;32.25;;;19.17;;
29728;SDS011;20055;51.498;11.960;2022-08-19T07:01:40;32.83;;;18.83;;
29728;SDS011;20055;51.498;11.960;2022-08-19T07:04:13;32.15;;;19.27;;
29728;SDS011;20055;51.498;11.960;2022-08-19T07:06:42;32.72;;;17.63;;
29728;SDS011;20055;51.498;11.960;2022-08-19T07:09:10;31.27;;;19.77;;
29728;SDS011;20055;51.498;11.960;2022-08-19T07:11:38;35.97;;;18.85;;
29728;SDS011;20055;51.498;11.960;2022-08-19T07:14:08;33.83;;;19.83;;
29728;SDS011;20055;51.498;11.960;2022-08-19T07:16:35;26.52;;;17.98;;
29728;SDS011;20055;51.498;11.960;2022-08-19T07:19:01;28.17;;;18.65;;
29728;SDS011;20055;51.498;11.960;2022-08-19T07:21:27;38.70;;;19.73;;
29728;SDS011;20055;51.498;11.960;2022-08-19T07:23:56;29.98;;;18.65;;
29728;SDS011;20055;51.498;11.960;2022-08-19T07:26:29;36.70;;;19.77;;
29728;SDS011;20055;51.498;11.960;2022-08-19T07:28:58;29.55;;;20.58;;
29728;SDS011;20055;51.498;11.960;2022-08-19T07:31:26;28.60;;;18.98;;
29728;SDS011;20055;51.498;11.960;2022-08-19T07:33:53;28.90;;;19.17;;
29728;SDS011;20055;51.498;11.960;2022-08-19T07:36:22;29.70;;;19.20;;
29728;SDS011;20055;51.498;11.960;2022-08-19T07:38:50;32.20;;;19.13;;
29728;SDS011;20055;51.498;11.960;2022-08-19T07:41:21;28.30;;;18.75;;
29728;SDS011;20055;51.498;11.960;2022-08-19T07:43:49;32.40;;;20.17;;
29728;SDS011;20055;51.498;11.960;2022-08-19T07:46:17;36.38;;;19.35;;
29728;SDS011;20055;51.498;11.960;2022-08-19T07:48:46;34.60;;;19.17;;
29728;SDS011;20055;51.498;11.960;2022-08-19T07:51:16;31.42;;;18.88;;
29728;SDS011;20055;51.498;11.960;2022-08-19T07:53:44;25.15;;;17.88;;
29728;SDS011;20055;51.498;11.960;2022-08-19T07:56:12;32.63;;;18.73;;
29728;SDS011;20055;51.498;11.960;2022-08-19T07:58:40;31.42;;;18.00;;
29728;SDS011;20055;51.498;11.960;2022-08-19T08:01:10;38.70;;;19.10;;
29728;SDS011;20055;51.498;11.960;2022-08-19T08:06:24;32.22;;;19.73;;
29728;SDS011;20055;51.498;11.960;2022-08-19T08:09:09;36.10;;;19.02;;
29728;SDS011;20055;51.498;11.960;2022-08-19T08:11:51;31.15;;;18.73;;
29728;SDS011;20055;51.498;11.960;2022-08-19T08:14:24;31.05;;;17.45;;
29728;SDS011;20055;51.498;11.960;2022-08-19T08:16:52;27.77;;;17.00;;
29728;SDS011;20055;51.498;11.960;2022-08-19T08:19:20;26.67;;;17.52;;
29728;SDS011;20055;51.498;11.960;2022-08-19T08:21:47;27.02;;;18.45;;
29728;SDS011;20055;51.498;11.960;2022-08-19T08:24:15;27.50;;;14.88;;
29728;SDS011;20055;51.498;11.960;2022-08-19T08:26:42;30.42;;;14.35;;
29728;SDS011;20055;51.498;11.960;2022-08-19T08:29:13;32.40;;;18.38;;
29728;SDS011;20055;51.498;11.960;2022-08-19T08:31:41;32.97;;;19.33;;
29728;SDS011;20055;51.498;11.960;2022-08-19T08:34:09;30.75;;;17.63;;
29728;SDS011;20055;51.498;11.960;2022-08-19T08:36:41;32.20;;;18.67;;
29728;SDS011;20055;51.498;11.960;2022-08-19T08:39:18;26.42;;;17.23;;
29728;SDS011;20055;51.498;11.960;2022-08-19T08:44:48;25.33;;;16.42;;
29728;SDS011;20055;51.498;11.960;2022-08-19T08:47:23;26.20;;;15.85;;
29728;SDS011;20055;51.498;11.960;2022-08-19T08:49:56;32.78;;;15.95;;
29728;SDS011;20055;51.498;11.960;2022-08-19T08:52:30;27.98;;;14.45;;
29728;SDS011;20055;51.498;11.960;2022-08-19T08:55:05;33.88;;;15.93;;
29728;SDS011;20055;51.498;11.960;2022-08-19T08:57:43;34.95;;;15.55;;
29728;SDS011;20055;51.498;11.960;2022-08-19T09:00:17;26.88;;;15.30;;
29728;SDS011;20055;51.498;11.960;2022-08-19T09:02:50;24.58;;;14.38;;
29728;SDS011;20055;51.498;11.960;2022-08-19T09:05:17;29.63;;;15.95;;
29728;SDS011;20055;51.498;11.960;2022-08-19T09:10:38;19.23;;;11.55;;
29728;SDS011;20055;51.498;11.960;2022-08-19T09:16:15;28.13;;;15.23;;
29728;SDS011;20055;51.498;11.960;2022-08-19T09:18:48;26.92;;;13.88;;
29728;SDS011;20055;51.498;11.960;2022-08-19T09:21:20;22.75;;;14.57;;
29728;SDS011;20055;51.498;11.960;2022-08-19T09:23:48;27.45;;;15.98;;
29728;SDS011;20055;51.498;11.960;2022-08-19T09:26:17;22.08;;;13.93;;
29728;SDS011;20055;51.498;11.960;2022-08-19T09:28:46;21.10;;;13.73;;
29728;SDS011;20055;51.498;11.960;2022-08-19T09:31:18;22.13;;;14.48;;
29728;SDS011;20055;51.498;11.960;2022-08-19T09:33:47;22.92;;;14.10;;
29728;SDS011;20055;51.498;11.960;2022-08-19T09:36:14;25.30;;;14.10;;
29728;SDS011;20055;51.498;11.960;2022-08-19T09:38:44;21.27;;;13.75;;
29728;SDS011;20055;51.498;11.960;2022-08-19T09:41:12;22.88;;;14.32;;
29728;SDS011;20055;51.498;11.960;2022-08-19T09:43:46;22.67;;;15.50;;
29728;SDS011;20055;51.498;11.960;2022-08-19T09:46:14;26.00;;;14.98;;
29728;SDS011;20055;51.498;11.960;2022-08-19T09:48:42;24.02;;;14.32;;
29728;SDS011;20055;51.498;11.960;2022-08-19T09:51:11;30.75;;;13.95;;
29728;SDS011;20055;51.498;11.960;2022-08-19T09:53:44;25.85;;;14.60;;
29728;SDS011;20055;51.498;11.960;2022-08-19T09:56:13;24.70;;;12.90;;
29728;SDS011;20055;51.498;11.960;2022-08-19T09:58:39;22.27;;;14.07;;
29728;SDS011;20055;51.498;11.960;2022-08-19T10:01:06;26.52;;;12.80;;
29728;SDS011;20055;51.498;11.960;2022-08-19T10:03:34;26.02;;;13.15;;
29728;SDS011;20055;51.498;11.960;2022-08-19T10:06:03;22.90;;;12.68;;
29728;SDS011;20055;51.498;11.960;2022-08-19T10:08:31;21.67;;;12.00;;
29728;SDS011;20055;51.498;11.960;2022-08-19T10:13:27;25.33;;;11.68;;
29728;SDS011;20055;51.498;11.960;2022-08-19T10:15:56;21.05;;;13.20;;
29728;SDS011;20055;51.498;11.960;2022-08-19T10:18:31;29.00;;;13.70;;
29728;SDS011;20055;51.498;11.960;2022-08-19T10:21:07;20.85;;;12.57;;
29728;SDS011;20055;51.498;11.960;2022-08-19T10:23:36;25.00;;;13.20;;
29728;SDS011;20055;51.498;11.960;2022-08-19T10:26:04;24.02;;;13.65;;
29728;SDS011;20055;51.498;11.960;2022-08-19T10:28:33;22.80;;;13.05;;
29728;SDS011;20055;51.498;11.960;2022-08-19T10:31:13;28.05;;;14.05;;
29728;SDS011;20055;51.498;11.960;2022-08-19T10:33:43;21.77;;;14.52;;
29728;SDS011;20055;51.498;11.960;2022-08-19T10:36:10;22.73;;;13.77;;
29728;SDS011;20055;51.498;11.960;2022-08-19T10:38:43;21.80;;;14.82;;
29728;SDS011;20055;51.498;11.960;2022-08-19T10:41:11;25.77;;;13.40;;
29728;SDS011;20055;51.498;11.960;2022-08-19T10:43:43;33.35;;;15.82;;
29728;SDS011;20055;51.498;11.960;2022-08-19T10:46:14;21.65;;;13.55;;
29728;SDS011;20055;51.498;11.960;2022-08-19T10:48:41;21.58;;;12.20;;
29728;SDS011;20055;51.498;11.960;2022-08-19T10:51:09;23.10;;;12.45;;
29728;SDS011;20055;51.498;11.960;2022-08-19T10:53:54;22.15;;;12.30;;
29728;SDS011;20055;51.498;11.960;2022-08-19T10:56:21;16.90;;;12.02;;
29728;SDS011;20055;51.498;11.960;2022-08-19T10:59:06;23.63;;;12.15;;
29728;SDS011;20055;51.498;11.960;2022-08-19T11:01:33;22.38;;;12.55;;
29728;SDS011;20055;51.498;11.960;2022-08-19T11:04:00;21.30;;;12.40;;
29728;SDS011;20055;51.498;11.960;2022-08-19T11:06:28;18.85;;;11.40;;
29728;SDS011;20055;51.498;11.960;2022-08-19T11:08:55;19.73;;;12.75;;
29728;SDS011;20055;51.498;11.960;2022-08-19T11:11:22;21.05;;;12.82;;
29728;SDS011;20055;51.498;11.960;2022-08-19T11:13:48;21.90;;;13.88;;
29728;SDS011;20055;51.498;11.960;2022-08-19T11:16:17;30.23;;;14.38;;
29728;SDS011;20055;51.498;11.960;2022-08-19T11:18:52;22.50;;;13.15;;
29728;SDS011;20055;51.498;11.960;2022-08-19T11:21:21;20.40;;;14.35;;
29728;SDS011;20055;51.498;11.960;2022-08-19T11:23:54;24.77;;;13.77;;
29728;SDS011;20055;51.498;11.960;2022-08-19T11:26:22;23.80;;;14.02;;
29728;SDS011;20055;51.498;11.960;2022-08-19T11:28:50;21.98;;;13.57;;
29728;SDS011;20055;51.498;11.960;2022-08-19T11:31:20;18.83;;;13.80;;
29728;SDS011;20055;51.498;11.960;2022-08-19T11:33:48;21.60;;;14.25;;
29728;SDS011;20055;51.498;11.960;2022-08-19T11:36:21;30.88;;;15.57;;
29728;SDS011;20055;51.498;11.960;2022-08-19T11:38:48;25.95;;;15.32;;
29728;SDS011;20055;51.498;11.960;2022-08-19T11:41:15;20.65;;;14.60;;
29728;SDS011;20055;51.498;11.960;2022-08-19T11:43:43;15.80;;;11.10;;
29728;SDS011;20055;51.498;11.960;2022-08-19T11:46:11;21.20;;;14.20;;
29728;SDS011;20055;51.498;11.960;2022-08-19T11:48:38;20.67;;;13.10;;
29728;SDS011;20055;51.498;11.960;2022-08-19T11:51:10;22.88;;;13.60;;
29728;SDS011;20055;51.498;11.960;2022-08-19T11:53:39;18.58;;;13.18;;
29728;SDS011;20055;51.498;11.960;2022-08-19T11:56:06;21.70;;;13.48;;
29728;SDS011;20055;51.498;11.960;2022-08-19T11:58:34;18.30;;;12.75;;
29728;SDS011;20055;51.498;11.960;2022-08-19T12:01:00;17.77;;;12.30;;
29728;SDS011;20055;51.498;11.960;2022-08-19T12:03:30;19.88;;;12.02;;
29728;SDS011;20055;51.498;11.960;2022-08-19T12:05:56;21.92;;;12.10;;
29728;SDS011;20055;51.498;11.960;2022-08-19T12:08:23;16.98;;;11.30;;
29728;SDS011;20055;51.498;11.960;2022-08-19T12:10:49;21.17;;;13.48;;
29728;SDS011;20055;51.498;11.960;2022-08-19T12:13:15;22.17;;;12.38;;
29728;SDS011;20055;51.498;11.960;2022-08-19T12:15:44;22.88;;;12.75;;
29728;SDS011;20055;51.498;11.960;2022-08-19T12:18:12;22.38;;;13.43;;
29728;SDS011;20055;51.498;11.960;2022-08-19T12:20:40;21.52;;;13.93;;
29728;SDS011;20055;51.498;11.960;2022-08-19T12:23:08;22.15;;;13.70;;
29728;SDS011;20055;51.498;11.960;2022-08-19T12:25:35;25.77;;;15.27;;
29728;SDS011;20055;51.498;11.960;2022-08-19T12:28:02;19.05;;;12.75;;
29728;SDS011;20055;51.498;11.960;2022-08-19T12:30:29;21.52;;;13.73;;
29728;SDS011;20055;51.498;11.960;2022-08-19T12:32:55;20.00;;;13.43;;
29728;SDS011;20055;51.498;11.960;2022-08-19T12:35:21;16.83;;;12.32;;
29728;SDS011;20055;51.498;11.960;2022-08-19T12:37:48;17.58;;;12.73;;
29728;SDS011;20055;51.498;11.960;2022-08-19T12:40:15;15.63;;;11.07;;
29728;SDS011;20055;51.498;11.960;2022-08-19T12:42:43;21.13;;;12.02;;
29728;SDS011;20055;51.498;11.960;2022-08-19T12:45:13;17.20;;;10.82;;
29728;SDS011;20055;51.498;11.960;2022-08-19T12:47:40;17.95;;;12.40;;
29728;SDS011;20055;51.498;11.960;2022-08-19T12:50:07;17.42;;;11.15;;
29728;SDS011;20055;51.498;11.960;2022-08-19T12:52:35;15.13;;;10.18;;
29728;SDS011;20055;51.498;11.960;2022-08-19T12:55:07;15.05;;;10.43;;
29728;SDS011;20055;51.498;11.960;2022-08-19T12:57:34;23.10;;;11.85;;
29728;SDS011;20055;51.498;11.960;2022-08-19T13:00:11;18.95;;;11.35;;
29728;SDS011;20055;51.498;11.960;2022-08-19T13:02:40;17.05;;;11.18;;
29728;SDS011;20055;51.498;11.960;2022-08-19T13:07:38;22.98;;;11.82;;
29728;SDS011;20055;51.498;11.960;2022-08-19T13:10:06;17.00;;;11.32;;
29728;SDS011;20055;51.498;11.960;2022-08-19T13:12:35;18.90;;;11.18;;
29728;SDS011;20055;51.498;11.960;2022-08-19T13:15:01;21.90;;;12.65;;
29728;SDS011;20055;51.498;11.960;2022-08-19T13:17:28;32.15;;;16.05;;
29728;SDS011;20055;51.498;11.960;2022-08-19T13:19:54;21.63;;;13.80;;
29728;SDS011;20055;51.498;11.960;2022-08-19T13:22:20;28.33;;;17.55;;
29728;SDS011;20055;51.498;11.960;2022-08-19T13:24:46;30.75;;;16.60;;
29728;SDS011;20055;51.498;11.960;2022-08-19T13:27:13;24.08;;;17.00;;
29728;SDS011;20055;51.498;11.960;2022-08-19T13:29:40;27.73;;;17.60;;
29728;SDS011;20055;51.498;11.960;2022-08-19T13:32:26;30.23;;;19.67;;
29728;SDS011;20055;51.498;11.960;2022-08-19T13:35:11;34.30;;;20.48;;
29728;SDS011;20055;51.498;11.960;2022-08-19T13:37:37;36.33;;;22.63;;
29728;SDS011;20055;51.498;11.960;2022-08-19T13:40:07;38.35;;;22.67;;
29728;SDS011;20055;51.498;11.960;2022-08-19T13:42:50;32.45;;;21.40;;
29728;SDS011;20055;51.498;11.960;2022-08-19T13:45:22;37.05;;;20.55;;
29728;SDS011;20055;51.498;11.960;2022-08-19T13:47:50;30.52;;;20.40;;
29728;SDS011;20055;51.498;11.960;2022-08-19T13:50:21;33.87;;;21.43;;
29728;SDS011;20055;51.498;11.960;2022-08-19T13:52:51;29.23;;;20.60;;
29728;SDS011;20055;51.498;11.960;2022-08-19T13:55:18;32.15;;;20.95;;
29728;SDS011;20055;51.498;11.960;2022-08-19T13:57:45;30.52;;;20.45;;
29728;SDS011;20055;51.498;11.960;2022-08-19T14:00:14;32.05;;;22.25;;
29728;SDS011;20055;51.498;11.960;2022-08-19T14:02:44;32.33;;;22.10;;
29728;SDS011;20055;51.498;11.960;2022-08-19T14:05:14;26.27;;;19.17;;
29728;SDS011;20055;51.498;11.960;2022-08-19T14:07:41;30.30;;;20.60;;
29728;SDS011;20055;51.498;11.960;2022-08-19T14:10:09;29.75;;;20.55;;
29728;SDS011;20055;51.498;11.960;2022-08-19T14:12:36;30.60;;;21.55;;
29728;SDS011;20055;51.498;11.960;2022-08-19T14:15:05;32.15;;;19.25;;
29728;SDS011;20055;51.498;11.960;2022-08-19T14:17:33;30.30;;;21.37;;
29728;SDS011;20055;51.498;11.960;2022-08-19T14:20:01;32.65;;;21.98;;
29728;SDS011;20055;51.498;11.960;2022-08-19T14:22:33;30.80;;;22.33;;
29728;SDS011;20055;51.498;11.960;2022-08-19T14:25:04;33.63;;;21.98;;
29728;SDS011;20055;51.498;11.960;2022-08-19T14:27:33;42.30;;;22.35;;
29728;SDS011;20055;51.498;11.960;2022-08-19T14:30:00;36.55;;;22.05;;
29728;SDS011;20055;51.498;11.960;2022-08-19T14:32:28;35.97;;;21.73;;
29728;SDS011;20055;51.498;11.960;2022-08-19T14:34:55;30.42;;;20.58;;